Time;durP1;ratioP1;P1;durP2;ratioP2;P2;SDS_P1;SDS_P2;PMS_P1;PMS_P2;Temp;Humidity;BMP_temperature;BMP_pressure;BME280_temperature;BME280_humidity;BME280_pressure;Samples;Min_cycle;Max_cycle;Signal;HPM_P1;HPM_P2
2022/10/01 00:00:55;;;;;;;0.00;0.00;;;13.60;98.00;;;;;;4941113;29;20027;-70
2022/10/01 00:03:30;;;;;;;0.00;0.00;;;13.70;98.00;;;;;;4958217;29;20031;-70
2022/10/01 00:09:31;;;;;;;0.00;0.00;;;13.70;98.00;;;;;;4958297;29;20061;-70
2022/10/01 00:12:07;;;;;;;0.00;0.00;;;13.70;98.00;;;;;;4941128;29;20038;-70
2022/10/01 00:18:09;;;;;;;0.00;0.00;;;13.90;98.00;;;;;;4958621;28;20125;-70
2022/10/01 00:20:44;;;;;;;0.00;0.00;;;13.80;98.00;;;;;;4941336;29;20416;-70
2022/10/01 00:23:18;;;;;;;0.10;0.10;;;13.80;98.00;;;;;;4957985;29;20039;-70
2022/10/01 00:29:18;;;;;;;0.00;0.00;;;13.70;98.00;;;;;;4958238;29;20086;-70
2022/10/01 00:31:53;;;;;;;0.00;0.00;;;13.60;98.00;;;;;;4940887;29;20134;-70
2022/10/01 00:37:41;;;;;;;0.00;0.00;;;13.50;98.00;;;;;;4958036;28;20045;-70
2022/10/01 00:40:28;;;;;;;0.00;0.00;;;13.50;98.00;;;;;;4940904;29;20123;-70
2022/10/01 00:43:39;;;;;;;0.00;0.00;;;13.50;98.00;;;;;;4957769;29;20483;-70
2022/10/01 00:49:38;;;;;;;0.00;0.00;;;13.50;98.00;;;;;;4880442;29;20100;-70
2022/10/01 00:52:17;;;;;;;0.00;0.00;;;13.60;98.00;;;;;;4883588;29;20037;-70
2022/10/01 00:58:14;;;;;;;0.00;0.00;;;13.50;98.00;;;;;;4883828;29;20124;-70
2022/10/01 01:05:33;;;;;;;0.00;0.00;;;13.40;98.00;;;;;;4961223;28;20328;-70
2022/10/01 01:09:21;;;;;;;0.00;0.00;;;13.40;98.00;;;;;;4961063;29;20404;-70
2022/10/01 01:13:00;;;;;;;0.00;0.00;;;13.30;98.00;;;;;;4960897;29;20039;-70
2022/10/01 01:20:19;;;;;;;0.00;0.00;;;13.20;98.00;;;;;;4960927;29;20075;-70
2022/10/01 01:27:50;;;;;;;0.00;0.00;;;13.20;98.00;;;;;;4961047;29;20400;-70
2022/10/01 01:31:29;;;;;;;0.00;0.00;;;13.50;98.00;;;;;;4960317;29;20046;-70
2022/10/01 01:35:08;;;;;;;0.00;0.00;;;13.50;98.00;;;;;;4960486;28;20328;-70
2022/10/01 01:38:48;;;;;;;0.28;0.28;;;13.40;98.00;;;;;;4960385;29;20035;-70
2022/10/01 01:42:28;;;;;;;0.00;0.00;;;13.40;98.00;;;;;;4960184;29;20073;-70
2022/10/01 01:49:57;;;;;;;0.00;0.00;;;13.50;98.00;;;;;;4960701;29;20050;-70
2022/10/01 01:53:39;;;;;;;0.00;0.00;;;13.50;98.00;;;;;;4960211;29;20035;-70
2022/10/01 01:57:18;;;;;;;0.00;0.00;;;13.50;98.00;;;;;;4960016;28;20041;-70
2022/10/01 02:00:57;;;;;;;0.00;0.00;;;13.40;98.00;;;;;;4960037;29;20035;-70
2022/10/01 02:07:33;;;;;;;0.00;0.00;;;13.50;98.00;;;;;;4960379;29;20058;-70
2022/10/01 02:10:42;;;;;;;0.10;0.05;;;13.50;98.00;;;;;;4959782;29;20043;-70
2022/10/01 02:13:38;;;;;;;0.00;0.00;;;13.50;98.00;;;;;;4959720;29;20077;-70
2022/10/01 02:16:13;;;;;;;0.00;0.00;;;13.60;98.00;;;;;;4959582;28;20404;-70
2022/10/01 02:19:36;;;;;;;0.00;0.00;;;13.60;98.00;;;;;;4943162;29;20094;-70
2022/10/01 02:22:17;;;;;;;0.00;0.00;;;13.70;98.00;;;;;;4935328;29;20070;-70
2022/10/01 02:25:33;;;;;;;0.00;0.00;;;13.70;98.00;;;;;;4959415;28;20037;-70
2022/10/01 02:28:19;;;;;;;0.00;0.00;;;13.70;98.00;;;;;;4959414;29;20062;-70
2022/10/01 02:30:55;;;;;;;;;;;13.70;98.00;;;;;;4943032;29;20114;-70
2022/10/01 02:33:50;;;;;;;0.00;0.00;;;13.70;98.00;;;;;;4959275;29;20382;-70
2022/10/01 02:36:18;;;;;;;0.00;0.00;;;13.80;98.00;;;;;;4959232;29;20035;-70
2022/10/01 02:38:54;;;;;;;0.00;0.00;;;13.90;98.00;;;;;;4959122;29;20028;-70
2022/10/01 02:41:34;;;;;;;0.00;0.00;;;14.00;98.00;;;;;;4942217;29;20436;-70
2022/10/01 02:47:36;;;;;;;0.00;0.00;;;14.00;98.00;;;;;;4959512;29;20501;-70
2022/10/01 02:50:11;;;;;;;0.00;0.00;;;14.00;98.00;;;;;;4959057;29;20046;-70
2022/10/01 02:53:10;;;;;;;0.00;0.00;;;14.00;98.00;;;;;;4958890;29;20031;-70
2022/10/01 02:59:07;;;;;;;0.00;0.00;;;13.90;98.00;;;;;;4959054;29;20046;-70
2022/10/01 03:01:42;;;;;;;0.00;0.00;;;13.80;98.00;;;;;;4941673;29;20048;-70
2022/10/01 03:07:43;;;;;;;0.00;0.00;;;13.60;98.00;;;;;;4959646;29;20081;-70
2022/10/01 03:10:17;;;;;;;0.00;0.00;;;13.50;98.00;;;;;;4958910;29;20032;-70
2022/10/01 03:12:52;;;;;;;0.00;0.00;;;13.30;98.00;;;;;;4941441;29;20126;-70
2022/10/01 03:15:19;;;;;;;0.00;0.00;;;13.30;98.00;;;;;;4941629;29;20440;-70
2022/10/01 03:18:03;;;;;;;0.00;0.00;;;13.20;98.00;;;;;;4941580;29;20059;-70
2022/10/01 03:20:38;;;;;;;0.00;0.00;;;13.10;98.00;;;;;;4941473;29;20055;-70
2022/10/01 03:23:13;;;;;;;0.00;0.00;;;13.10;98.00;;;;;;4941720;29;20031;-70
2022/10/01 03:29:14;;;;;;;0.00;0.00;;;13.00;98.00;;;;;;4958513;29;20179;-69
2022/10/01 03:31:48;;;;;;;0.00;0.00;;;13.00;98.00;;;;;;4958482;29;20037;-70
2022/10/01 03:37:51;;;;;;;0.00;0.00;;;12.90;98.00;;;;;;4958925;29;20375;-70
2022/10/01 03:40:26;;;;;;;0.00;0.00;;;12.80;98.00;;;;;;4941504;29;20447;-70
2022/10/01 03:43:01;;;;;;;1.02;0.55;;;12.80;98.00;;;;;;4941373;29;20081;-69
2022/10/01 03:49:02;;;;;;;0.00;0.00;;;12.60;98.00;;;;;;4958835;29;20490;-70
2022/10/01 03:51:36;;;;;;;0.00;0.00;;;12.50;98.00;;;;;;4958016;29;20046;-69
2022/10/01 03:57:24;;;;;;;0.00;0.00;;;12.40;98.00;;;;;;4958761;29;20524;-70
2022/10/01 03:59:59;;;;;;;0.00;0.00;;;12.30;98.00;;;;;;4941127;29;20043;-70
2022/10/01 04:02:34;;;;;;;0.00;0.00;;;12.20;98.00;;;;;;4958193;29;20087;-69
2022/10/01 04:05:09;;;;;;;0.00;0.00;;;12.20;98.00;;;;;;4941289;29;20054;-69
2022/10/01 04:07:45;;;;;;;0.00;0.00;;;12.20;98.00;;;;;;4941216;29;20043;-70
2022/10/01 04:10:20;;;;;;;0.00;0.00;;;12.20;98.00;;;;;;4941276;29;20035;-69
2022/10/01 04:12:55;;;;;;;0.00;0.00;;;12.30;98.00;;;;;;4941268;29;20043;-69
2022/10/01 04:18:52;;;;;;;0.10;0.10;;;12.30;98.00;;;;;;4958201;29;20109;-69
2022/10/01 04:21:28;;;;;;;0.00;0.00;;;12.30;98.00;;;;;;4957922;29;20024;-69
2022/10/01 04:27:18;;;;;;;0.00;0.00;;;12.40;98.00;;;;;;4962118;29;20043;-69
2022/10/01 04:29:56;;;;;;;0.00;0.00;;;12.40;98.00;;;;;;4945136;29;20039;-69
2022/10/01 04:32:30;;;;;;;0.00;0.00;;;12.40;98.00;;;;;;4961316;29;20059;-70
2022/10/01 04:38:18;;;;;;;0.00;0.00;;;12.30;98.00;;;;;;4961985;29;20122;-69
2022/10/01 04:40:53;;;;;;;0.00;0.00;;;12.30;98.00;;;;;;4944411;29;20122;-69
2022/10/01 04:43:28;;;;;;;0.00;0.00;;;12.30;98.00;;;;;;4944391;29;20475;-69
2022/10/01 04:49:24;;;;;;;0.00;0.00;;;12.10;98.00;;;;;;4961225;29;20517;-69
2022/10/01 04:52:00;;;;;;;0.00;0.00;;;11.90;98.00;;;;;;4961722;29;20039;-69
2022/10/01 04:57:56;;;;;;;0.00;0.00;;;11.90;98.00;;;;;;4961718;29;20050;-69
2022/10/01 05:00:31;;;;;;;0.00;0.00;;;11.90;98.00;;;;;;4960869;29;20090;-69
2022/10/01 05:03:06;;;;;;;0.00;0.00;;;11.90;98.00;;;;;;4961564;29;20038;-70
2022/10/01 05:09:07;;;;;;;0.00;0.00;;;12.10;98.00;;;;;;4961250;29;20122;-69
2022/10/01 05:11:42;;;;;;;0.00;0.00;;;12.30;98.00;;;;;;4960844;29;20107;-69
2022/10/01 05:17:48;;;;;;;0.00;0.00;;;12.50;98.00;;;;;;4960868;28;20159;-69
2022/10/01 05:20:27;;;;;;;0.00;0.00;;;12.70;98.00;;;;;;4960660;29;20360;-70
2022/10/01 05:23:01;;;;;;;0.00;0.00;;;12.80;98.00;;;;;;4960714;29;20043;-69
2022/10/01 05:29:01;;;;;;;0.00;0.00;;;13.00;98.00;;;;;;4961001;29;20442;-69
2022/10/01 05:31:36;;;;;;;0.00;0.00;;;13.10;98.00;;;;;;4960494;29;20022;-70
2022/10/01 05:37:24;;;;;;;0.00;0.00;;;13.30;98.00;;;;;;4960713;28;20049;-69
2022/10/01 05:39:59;;;;;;;0.10;0.10;;;13.30;98.00;;;;;;4943347;29;20035;-70
2022/10/01 05:42:34;;;;;;;0.00;0.00;;;13.40;98.00;;;;;;4943700;29;20023;-70
2022/10/01 05:48:21;;;;;;;0.20;0.20;;;13.50;98.00;;;;;;4960380;28;20392;-69
2022/10/01 05:50:58;;;;;;;0.00;0.00;;;13.50;98.00;;;;;;4943239;29;20039;-69
2022/10/01 05:53:36;;;;;;;0.00;0.00;;;13.60;98.00;;;;;;4960139;29;20039;-69
2022/10/01 05:59:34;;;;;;;0.00;0.00;;;13.70;98.00;;;;;;4960151;29;20335;-69
2022/10/01 06:02:09;;;;;;;0.00;0.00;;;13.70;98.00;;;;;;4960087;29;20053;-69
2022/10/01 06:08:12;;;;;;;0.00;0.00;;;13.80;98.00;;;;;;4960189;29;20435;-69
2022/10/01 06:10:47;;;;;;;0.00;0.00;;;13.80;98.00;;;;;;4959737;29;20031;-70
2022/10/01 06:13:22;;;;;;;0.00;0.00;;;13.80;98.00;;;;;;4959517;29;20123;-70
2022/10/01 06:19:22;;;;;;;0.00;0.00;;;13.90;98.00;;;;;;4959955;29;20034;-70
2022/10/01 06:21:57;;;;;;;0.00;0.00;;;13.90;98.00;;;;;;4942538;29;20046;-69
2022/10/01 06:27:58;;;;;;;0.00;0.00;;;14.00;98.00;;;;;;4959844;29;20070;-70
2022/10/01 06:30:35;;;;;;;0.22;0.22;;;14.00;98.00;;;;;;4959389;29;20102;-69
2022/10/01 06:33:15;;;;;;;0.00;0.00;;;14.00;98.00;;;;;;4942278;29;20035;-70
2022/10/01 06:39:12;;;;;;;0.00;0.00;;;14.20;98.00;;;;;;4959475;29;20343;-69
2022/10/01 06:41:47;;;;;;;0.00;0.00;;;14.30;98.00;;;;;;4942381;29;20038;-70
2022/10/01 06:51:07;;;;;;;0.00;0.00;;;14.40;98.00;;;;;;4958898;29;20050;-70
2022/10/01 06:53:51;;;;;;;0.00;0.00;;;14.30;98.00;;;;;;4959178;29;20031;-69
2022/10/01 06:56:17;;;;;;;0.00;0.00;;;14.20;98.00;;;;;;4941872;29;20440;-69
2022/10/01 06:59:02;;;;;;;0.00;0.00;;;14.10;98.00;;;;;;4942017;29;20055;-69
2022/10/01 07:01:38;;;;;;;0.00;0.00;;;14.00;98.00;;;;;;4959082;29;20102;-70
2022/10/01 07:07:30;;;;;;;0.00;0.00;;;14.10;98.00;;;;;;4959072;29;20053;-69
2022/10/01 07:10:20;;;;;;;0.00;0.00;;;14.20;98.00;;;;;;4942084;29;20035;-69
2022/10/01 07:13:16;;;;;;;0.00;0.00;;;14.40;98.00;;;;;;4958952;29;20349;-69
2022/10/01 07:19:16;;;;;;;0.00;0.00;;;14.60;98.00;;;;;;4958938;29;20109;-69
2022/10/01 07:21:50;;;;;;;0.00;0.00;;;14.60;98.00;;;;;;4941686;29;20038;-69
2022/10/01 07:27:38;;;;;;;0.00;0.00;;;14.80;98.00;;;;;;4958925;28;20134;-69
2022/10/01 07:30:14;;;;;;;0.00;0.00;;;14.90;98.00;;;;;;4941457;29;20114;-69
2022/10/01 07:32:48;;;;;;;0.00;0.00;;;15.00;98.00;;;;;;4941312;29;20058;-69
2022/10/01 07:38:36;;;;;;;0.00;0.00;;;15.10;97.80;;;;;;4958445;28;20038;-69
2022/10/01 07:41:15;;;;;;;1.45;1.13;;;15.40;98.00;;;;;;4941334;29;20043;-69
2022/10/01 07:43:51;;;;;;;0.00;0.00;;;15.40;97.80;;;;;;4941838;29;20063;-70
2022/10/01 07:46:17;;;;;;;;;;;15.50;98.00;;;;;;4958836;29;20420;-69
2022/10/01 07:48:58;;;;;;;0.00;0.00;;;15.50;98.00;;;;;;4958261;29;19917;-69
2022/10/01 07:51:32;;;;;;;0.00;0.00;;;15.70;98.00;;;;;;4941258;29;20058;-69
2022/10/01 07:57:35;;;;;;;0.00;0.00;;;16.00;98.00;;;;;;4959012;28;20150;-69
2022/10/01 08:00:10;;;;;;;0.00;0.00;;;16.20;98.00;;;;;;4942329;29;20367;-69
2022/10/01 08:02:47;;;;;;;0.00;0.00;;;16.60;98.00;;;;;;4962202;29;20039;-69
2022/10/01 08:08:48;;;;;;;0.00;0.00;;;18.00;96.90;;;;;;4962233;29;20331;-70
2022/10/01 08:11:23;;;;;;;0.00;0.00;;;18.80;94.80;;;;;;4962116;29;20035;-70
2022/10/01 08:16:54;;;;;;;0.00;0.00;;;19.90;89.50;;;;;;4962220;28;19917;-70
2022/10/01 08:19:33;;;;;;;0.00;0.00;;;20.40;90.20;;;;;;4945049;29;20027;-70
2022/10/01 08:22:08;;;;;;;0.00;0.00;;;20.70;88.40;;;;;;4945012;29;20458;-70
2022/10/01 08:27:56;;;;;;;0.00;0.00;;;21.10;86.00;;;;;;4962193;29;20439;-70
2022/10/01 08:30:30;;;;;;;0.30;0.30;;;21.40;86.10;;;;;;4944733;29;20027;-70
2022/10/01 08:33:06;;;;;;;0.00;0.00;;;21.70;84.40;;;;;;4944372;29;20039;-68
2022/10/01 08:39:03;;;;;;;0.00;0.00;;;22.40;83.20;;;;;;4959711;29;20054;-70
2022/10/01 08:42:22;;;;;;;0.00;0.00;;;22.40;80.80;;;;;;4943876;29;20035;-70
2022/10/01 08:49:00;;;;;;;0.00;0.00;;;22.30;82.20;;;;;;4959514;29;20085;-67
2022/10/01 08:52:16;;;;;;;0.00;0.00;;;22.30;81.20;;;;;;4881971;29;20203;-68
2022/10/01 08:58:28;;;;;;;0.00;0.00;;;22.40;80.50;;;;;;4883327;29;20048;-67
2022/10/01 09:01:02;;;;;;;0.00;0.00;;;22.60;81.30;;;;;;4882416;29;20041;-68
2022/10/01 09:03:38;;;;;;;0.00;0.00;;;22.50;80.10;;;;;;4867927;29;20048;-67
2022/10/01 09:06:16;;;;;;;0.00;0.00;;;22.50;79.10;;;;;;4867686;29;20052;-67
2022/10/01 09:09:19;;;;;;;0.00;0.00;;;22.70;81.30;;;;;;4867745;29;20037;-67
2022/10/01 09:12:15;;;;;;;0.00;0.00;;;22.90;80.80;;;;;;4882589;29;20056;-67
2022/10/01 09:18:39;;;;;;;0.05;0.05;;;23.30;77.80;;;;;;4883017;29;20048;-68
2022/10/01 09:21:32;;;;;;;0.10;0.10;;;22.50;76.80;;;;;;4883230;29;20052;-67
2022/10/01 09:24:41;;;;;;;0.00;0.00;;;21.50;81.70;;;;;;4883069;29;20081;-67
2022/10/01 09:27:16;;;;;;;0.00;0.00;;;20.90;85.50;;;;;;4960267;29;20035;-67
2022/10/01 09:29:53;;;;;;;0.00;0.00;;;20.30;87.50;;;;;;4960401;29;20039;-67
2022/10/01 09:32:55;;;;;;;0.10;0.10;;;19.80;87.70;;;;;;4960189;29;20071;-67
2022/10/01 09:39:16;;;;;;;0.00;0.00;;;18.90;91.30;;;;;;4960722;29;20052;-67
2022/10/01 09:41:51;;;;;;;0.00;0.00;;;18.60;92.60;;;;;;4960192;29;20038;-67
2022/10/01 09:47:52;;;;;;;0.03;0.03;;;18.40;93.30;;;;;;4960534;28;20081;-69
2022/10/01 09:50:54;;;;;;;0.00;0.00;;;18.20;95.40;;;;;;4960152;29;20428;-70
2022/10/01 09:53:35;;;;;;;0.00;0.00;;;18.00;93.90;;;;;;4959902;29;20144;-70
2022/10/01 09:56:08;;;;;;;0.00;0.00;;;17.90;95.10;;;;;;4959176;28;20031;-70
2022/10/01 09:58:59;;;;;;;0.10;0.10;;;17.80;96.80;;;;;;4958361;29;20042;-70
2022/10/01 10:08:39;;;;;;;0.00;0.00;;;17.50;97.60;;;;;;4960053;29;20078;-70
2022/10/01 10:11:29;;;;;;;0.00;0.00;;;17.40;97.10;;;;;;4942760;29;20118;-70
2022/10/01 10:17:17;;;;;;;0.00;0.00;;;17.20;98.00;;;;;;4959967;29;20042;-70
2022/10/01 10:19:55;;;;;;;0.00;0.00;;;17.10;98.00;;;;;;4942642;29;20036;-70
2022/10/01 10:22:30;;;;;;;0.22;0.22;;;17.00;98.00;;;;;;4942199;29;20122;-70
2022/10/01 10:28:29;;;;;;;0.00;0.00;;;16.90;98.00;;;;;;4959228;29;20047;-70
2022/10/01 10:31:19;;;;;;;0.10;0.10;;;17.00;98.00;;;;;;4959097;29;20031;-70
2022/10/01 10:34:05;;;;;;;0.00;0.00;;;16.90;98.00;;;;;;4959240;28;20050;-70
2022/10/01 10:36:35;;;;;;;0.00;0.00;;;16.90;98.00;;;;;;4959451;29;20032;-70
2022/10/01 10:39:37;;;;;;;0.00;0.00;;;16.80;98.00;;;;;;4940578;29;20031;-70
2022/10/01 10:42:17;;;;;;;0.10;0.10;;;16.80;98.00;;;;;;4956841;29;20032;-70
2022/10/01 10:45:08;;;;;;;0.03;0.03;;;16.80;98.00;;;;;;4956533;28;20039;-70
2022/10/01 10:47:48;;;;;;;0.52;0.20;;;16.90;98.00;;;;;;4955330;29;20123;-70
2022/10/01 10:50:57;;;;;;;0.43;0.43;;;16.90;98.00;;;;;;4955790;29;20428;-70
2022/10/01 10:53:49;;;;;;;0.00;0.00;;;16.90;98.00;;;;;;4954183;29;20106;-70
2022/10/01 10:56:23;;;;;;;0.20;0.20;;;16.80;98.00;;;;;;4938141;29;20058;-70
2022/10/01 10:59:07;;;;;;;0.10;0.10;;;16.70;98.00;;;;;;4954867;29;20147;-70
2022/10/01 11:01:42;;;;;;;0.00;0.00;;;16.60;98.00;;;;;;4956583;29;20034;-70
2022/10/01 11:04:24;;;;;;;0.00;0.00;;;16.60;98.00;;;;;;4939903;28;20071;-70
2022/10/01 11:07:42;;;;;;;0.10;0.10;;;16.50;98.00;;;;;;4957019;29;20096;-70
2022/10/01 11:11:05;;;;;;;0.00;0.00;;;16.50;98.00;;;;;;4958736;29;20035;-70
2022/10/01 11:17:11;;;;;;;0.00;0.00;;;16.30;98.00;;;;;;4958826;29;20058;-70
2022/10/01 11:20:23;;;;;;;0.00;0.00;;;16.20;98.00;;;;;;4958376;29;20110;-70
2022/10/01 11:23:56;;;;;;;0.28;0.28;;;16.20;98.00;;;;;;4958395;29;20023;-70
2022/10/01 11:26:54;;;;;;;0.10;0.10;;;16.10;98.00;;;;;;4880922;29;20060;-70
2022/10/01 11:29:40;;;;;;;0.00;0.00;;;16.10;98.00;;;;;;4880960;29;20092;-70
2022/10/01 11:32:38;;;;;;;0.00;0.00;;;16.10;98.00;;;;;;4880775;29;20419;-70
2022/10/01 11:39:00;;;;;;;0.45;0.45;;;16.20;98.00;;;;;;4880934;29;20481;-70
2022/10/01 11:42:46;;;;;;;0.30;0.30;;;16.20;98.00;;;;;;4880813;29;20029;-70
2022/10/01 11:50:13;;;;;;;0.10;0.10;;;16.30;98.00;;;;;;4958967;29;20070;-70
2022/10/01 11:59:48;;;;;;;0.00;0.00;;;16.70;98.00;;;;;;4944002;29;20062;-70
2022/10/01 12:02:33;;;;;;;0.00;0.00;;;16.70;98.00;;;;;;4941739;29;20412;-70
2022/10/01 12:08:28;;;;;;;0.13;0.13;;;17.00;98.00;;;;;;4958258;29;20129;-70
2022/10/01 12:11:28;;;;;;;0.00;0.00;;;17.00;98.00;;;;;;4940376;29;20344;-70
2022/10/01 12:14:16;;;;;;;0.10;0.10;;;17.20;98.00;;;;;;4957756;28;20039;-70
2022/10/01 12:16:50;;;;;;;0.00;0.00;;;17.40;98.00;;;;;;4957954;29;20024;-70
2022/10/01 12:19:35;;;;;;;0.00;0.00;;;17.50;98.00;;;;;;4958050;29;20062;-70
2022/10/01 12:22:52;;;;;;;0.00;0.00;;;17.60;98.00;;;;;;4940790;29;20028;-70
2022/10/01 12:29:26;;;;;;;0.10;0.10;;;17.90;98.00;;;;;;4958333;29;20074;-70
2022/10/01 12:32:31;;;;;;;0.00;0.00;;;18.00;98.00;;;;;;4957867;29;20483;-70
2022/10/01 12:39:13;;;;;;;0.85;0.43;;;17.80;98.00;;;;;;4957712;28;20156;-70
2022/10/01 12:42:28;;;;;;;0.00;0.00;;;18.00;98.00;;;;;;4880248;29;20061;-70
2022/10/01 12:49:11;;;;;;;0.05;0.05;;;18.10;98.00;;;;;;4884078;29;20115;-70
2022/10/01 12:52:40;;;;;;;0.35;0.35;;;18.00;97.90;;;;;;4961143;29;20035;-70
2022/10/01 12:56:06;;;;;;;0.17;0.17;;;17.90;98.00;;;;;;4883498;29;20128;-70
2022/10/01 12:59:12;;;;;;;0.10;0.10;;;17.90;98.00;;;;;;4864956;29;20046;-70
2022/10/01 13:02:06;;;;;;;0.00;0.00;;;18.00;98.00;;;;;;4864882;29;20032;-70
2022/10/01 13:08:41;;;;;;;0.00;0.00;;;18.20;98.00;;;;;;4863812;29;20060;-72
2022/10/01 13:21:59;;;;;;;0.30;0.30;;;18.30;98.00;;;;;;4882131;29;20135;-78
2022/10/01 13:25:02;;;;;;;0.20;0.20;;;18.40;98.00;;;;;;4881761;29;20060;-78
2022/10/01 13:27:56;;;;;;;0.05;0.05;;;18.40;97.40;;;;;;4882096;29;20044;-77
2022/10/01 13:30:49;;;;;;;0.00;0.00;;;18.20;96.00;;;;;;4912198;29;20349;-76
2022/10/01 13:33:32;;;;;;;0.20;0.20;;;18.10;97.70;;;;;;4952970;29;20047;-80
2022/10/01 13:39:33;;;;;;;0.40;0.40;;;18.00;98.00;;;;;;4956974;29;20125;-80
2022/10/01 13:45:34;;;;;;;0.00;0.00;;;17.90;98.00;;;;;;4964015;28;20126;-82
2022/10/01 13:48:45;;;;;;;0.10;0.10;;;17.90;98.00;;;;;;4960980;28;20045;-80
2022/10/01 13:51:20;;;;;;;0.00;0.00;;;17.80;98.00;;;;;;4866750;29;20053;-80
2022/10/01 13:54:18;;;;;;;0.08;0.08;;;17.70;98.00;;;;;;4862712;29;20053;-79
2022/10/01 13:56:43;;;;;;;0.30;0.30;;;17.70;98.00;;;;;;4844422;29;20118;-78
2022/10/01 13:59:35;;;;;;;0.00;0.00;;;17.60;98.00;;;;;;4844461;29;20062;-78
2022/10/01 14:05:57;;;;;;;0.10;0.10;;;17.40;98.00;;;;;;4807770;29;20050;-80
2022/10/01 14:08:59;;;;;;;0.35;0.35;;;17.30;98.00;;;;;;4877449;29;20049;-77
2022/10/01 14:22:03;;;;;;;0.00;0.00;;;17.00;98.00;;;;;;4918124;29;20463;-80
2022/10/01 14:25:05;;;;;;;0.05;0.05;;;16.90;98.00;;;;;;4918126;29;20123;-80
2022/10/01 14:28:18;;;;;;;0.00;0.00;;;16.90;98.00;;;;;;4933741;29;20131;-80
2022/10/01 14:31:18;;;;;;;0.20;0.20;;;16.90;98.00;;;;;;4941263;29;20428;-80
2022/10/01 14:37:18;;;;;;;0.40;0.40;;;16.80;98.00;;;;;;4959676;28;20062;-80
2022/10/01 14:40:24;;;;;;;0.00;0.00;;;16.80;98.00;;;;;;4959250;29;20111;-80
2022/10/01 14:43:52;;;;;;;0.10;0.10;;;16.80;98.00;;;;;;4942164;29;20044;-80
2022/10/01 14:46:18;;;;;;;0.00;0.00;;;17.00;98.00;;;;;;4881416;29;20084;-80
2022/10/01 14:49:04;;;;;;;0.10;0.10;;;17.10;98.00;;;;;;4850611;29;20069;-80
2022/10/01 14:51:59;;;;;;;0.10;0.10;;;17.30;98.00;;;;;;4850446;29;20437;-80
2022/10/01 14:54:45;;;;;;;0.40;0.40;;;17.40;98.00;;;;;;4881294;29;20328;-80
2022/10/01 14:57:11;;;;;;;;;;;17.40;98.00;;;;;;4926523;29;20126;-80
2022/10/01 14:59:47;;;;;;;0.10;0.10;;;17.30;98.00;;;;;;4925976;29;19914;-80
2022/10/01 15:02:26;;;;;;;0.03;0.03;;;17.20;98.00;;;;;;4926016;29;20038;-80
2022/10/01 15:05:01;;;;;;;0.00;0.00;;;17.20;98.00;;;;;;4925989;29;20040;-80
2022/10/01 15:07:34;;;;;;;3.30;1.23;;;17.10;98.00;;;;;;4941829;29;20060;-80
2022/10/01 15:10:27;;;;;;;0.15;0.15;;;17.10;98.00;;;;;;4925978;29;20333;-81
2022/10/01 15:13:04;;;;;;;0.17;0.17;;;17.00;98.00;;;;;;4958478;29;20031;-81
2022/10/01 15:19:14;;;;;;;0.00;0.00;;;16.80;98.00;;;;;;4959125;28;20061;-80
2022/10/01 15:22:08;;;;;;;0.50;0.50;;;16.80;98.00;;;;;;4941435;29;20031;-80
2022/10/01 15:24:46;;;;;;;0.30;0.30;;;16.80;98.00;;;;;;4958442;29;20424;-80
2022/10/01 15:27:14;;;;;;;0.52;0.52;;;16.90;98.00;;;;;;4941547;29;20090;-80
2022/10/01 15:29:55;;;;;;;0.20;0.20;;;16.90;98.00;;;;;;4958348;28;20114;-80
2022/10/01 15:32:30;;;;;;;0.00;0.00;;;16.90;98.00;;;;;;4958535;29;20039;-80
2022/10/01 15:38:32;;;;;;;0.22;0.22;;;16.90;98.00;;;;;;4958393;28;20046;-80
2022/10/01 15:41:33;;;;;;;0.03;0.03;;;16.90;98.00;;;;;;4941286;29;20040;-80
2022/10/01 15:47:37;;;;;;;0.03;0.03;;;17.10;98.00;;;;;;4958473;28;20062;-80
2022/10/01 15:50:35;;;;;;;1.35;0.82;;;17.00;98.00;;;;;;4941221;29;20035;-80
2022/10/01 15:53:19;;;;;;;0.20;0.20;;;16.90;98.00;;;;;;4941115;29;20424;-80
2022/10/01 15:59:20;;;;;;;0.08;0.08;;;16.90;98.00;;;;;;4958479;29;20054;-80
2022/10/01 16:01:56;;;;;;;0.00;0.00;;;16.90;98.00;;;;;;4925207;29;20126;-80
2022/10/01 16:04:31;;;;;;;0.00;0.00;;;16.80;98.00;;;;;;4925319;29;20464;-80
2022/10/01 16:06:56;;;;;;;0.30;0.30;;;16.70;98.00;;;;;;4941022;28;20389;-80
2022/10/01 16:09:31;;;;;;;0.60;0.60;;;16.60;98.00;;;;;;4925352;29;20267;-80
2022/10/01 16:12:08;;;;;;;0.28;0.28;;;16.50;98.00;;;;;;4958063;28;20061;-80
2022/10/01 16:15:06;;;;;;;0.00;0.00;;;16.50;98.00;;;;;;4940868;29;20343;-80
2022/10/01 16:18:31;;;;;;;0.32;0.32;;;16.40;98.00;;;;;;4958173;29;20042;-80
2022/10/01 16:21:08;;;;;;;0.10;0.10;;;16.30;98.00;;;;;;4941765;29;20035;-80
2022/10/01 16:23:52;;;;;;;0.10;0.10;;;16.20;98.00;;;;;;4944626;29;20031;-80
2022/10/01 16:26:27;;;;;;;0.10;0.10;;;16.20;98.00;;;;;;4961640;29;20094;-80
2022/10/01 16:29:22;;;;;;;0.20;0.20;;;16.20;98.00;;;;;;4961536;28;20062;-80
2022/10/01 16:31:58;;;;;;;0.00;0.00;;;16.10;98.00;;;;;;4944610;29;20039;-80
2022/10/01 16:37:56;;;;;;;0.00;0.00;;;15.90;98.00;;;;;;4961828;28;20046;-80
2022/10/01 16:40:54;;;;;;;0.10;0.10;;;15.70;98.00;;;;;;4944308;29;20046;-80
2022/10/01 16:43:30;;;;;;;0.52;0.52;;;15.60;98.00;;;;;;4944271;29;20090;-80
2022/10/01 16:49:12;;;;;;;0.20;0.20;;;15.40;98.00;;;;;;4961321;28;19925;-80
2022/10/01 16:51:51;;;;;;;0.20;0.20;;;15.20;98.00;;;;;;4944227;29;20035;-80
2022/10/01 16:54:38;;;;;;;0.00;0.00;;;15.10;98.00;;;;;;4961000;29;20044;-80
2022/10/01 16:57:03;;;;;;;0.20;0.13;;;14.90;98.00;;;;;;4928237;29;20464;-80
2022/10/01 16:59:38;;;;;;;0.00;0.00;;;14.80;98.00;;;;;;4912517;29;20031;-80
2022/10/01 17:02:13;;;;;;;0.20;0.20;;;14.70;98.00;;;;;;4928268;29;20089;-80
2022/10/01 17:04:48;;;;;;;0.00;0.00;;;14.60;98.00;;;;;;4943973;29;20035;-80
2022/10/01 17:07:14;;;;;;;0.10;0.10;;;14.40;98.00;;;;;;4943999;29;20441;-80
2022/10/01 17:09:48;;;;;;;0.25;0.25;;;14.40;98.00;;;;;;4943932;28;20118;-80
2022/10/01 17:12:25;;;;;;;0.00;0.00;;;14.40;98.00;;;;;;4928110;29;20035;-79
2022/10/01 17:18:22;;;;;;;0.00;0.00;;;14.30;98.00;;;;;;4961107;29;20037;-80
2022/10/01 17:20:58;;;;;;;0.00;0.00;;;14.20;98.00;;;;;;4927793;29;20042;-80
2022/10/01 17:23:34;;;;;;;0.00;0.00;;;14.10;98.00;;;;;;4943978;29;20142;-80
2022/10/01 17:26:56;;;;;;;0.17;0.17;;;14.10;98.00;;;;;;4943834;29;20031;-80
2022/10/01 17:29:32;;;;;;;0.00;0.00;;;14.00;98.00;;;;;;4943566;29;20353;-80
2022/10/01 17:32:07;;;;;;;0.20;0.20;;;14.00;98.00;;;;;;4943105;29;20034;-80
2022/10/01 17:34:42;;;;;;;0.10;0.10;;;13.90;98.00;;;;;;4927265;29;20471;-80
2022/10/01 17:37:07;;;;;;;0.10;0.10;;;13.90;98.00;;;;;;4943418;29;20436;-80
2022/10/01 17:39:52;;;;;;;0.30;0.30;;;13.90;98.00;;;;;;4927518;29;20043;-79
2022/10/01 17:45:40;;;;;;;0.00;0.00;;;13.70;98.00;;;;;;4960659;28;20181;-80
2022/10/01 17:48:15;;;;;;;0.10;0.10;;;13.60;98.00;;;;;;4960206;28;20446;-79
2022/10/01 17:51:12;;;;;;;0.00;0.00;;;13.60;98.00;;;;;;4943102;29;20432;-79
2022/10/01 17:53:48;;;;;;;0.00;0.00;;;13.50;98.00;;;;;;4944730;28;20051;-79
2022/10/01 17:56:16;;;;;;;0.00;0.00;;;13.40;98.00;;;;;;4943040;29;20055;-80
2022/10/01 17:58:53;;;;;;;0.00;0.00;;;13.40;98.00;;;;;;4927640;29;20035;-80
2022/10/01 18:01:28;;;;;;;0.00;0.00;;;13.30;98.00;;;;;;4959895;29;20031;-79
2022/10/01 18:07:15;;;;;;;0.00;0.00;;;13.20;98.00;;;;;;4960190;29;20066;-79
2022/10/01 18:10:31;;;;;;;0.85;0.77;;;13.20;98.00;;;;;;4942914;29;20082;-79
2022/10/01 18:13:06;;;;;;;0.10;0.10;;;13.20;98.00;;;;;;4959478;29;20035;-79
2022/10/01 18:15:31;;;;;;;0.00;0.00;;;13.30;98.00;;;;;;4942572;29;20336;-79
2022/10/01 18:18:10;;;;;;;0.00;0.00;;;13.30;98.00;;;;;;4926683;29;20034;-80
2022/10/01 18:20:45;;;;;;;0.20;0.20;;;13.40;98.00;;;;;;4959227;29;20038;-78
2022/10/01 18:23:20;;;;;;;0.43;0.43;;;13.40;98.00;;;;;;4926563;29;20027;-79
2022/10/01 18:29:19;;;;;;;0.00;0.00;;;13.50;98.00;;;;;;4959710;28;20130;-82
2022/10/01 18:32:25;;;;;;;0.00;0.00;;;13.50;98.00;;;;;;4942196;29;20039;-83
2022/10/01 18:38:30;;;;;;;0.52;0.52;;;13.70;98.00;;;;;;4959398;28;20094;-78
2022/10/01 18:41:25;;;;;;;0.00;0.00;;;13.70;98.00;;;;;;4958897;29;20054;-79
2022/10/01 18:47:13;;;;;;;0.32;0.32;;;13.70;98.00;;;;;;4959167;29;20352;-79
2022/10/01 18:50:00;;;;;;;0.50;0.50;;;13.70;98.00;;;;;;4958779;29;20031;-79
2022/10/01 18:56:26;;;;;;;0.38;0.38;;;13.60;98.00;;;;;;4958708;28;20133;-79
2022/10/01 18:59:29;;;;;;;0.70;0.40;;;13.60;98.00;;;;;;4958845;28;20055;-79
2022/10/01 19:05:28;;;;;;;0.00;0.00;;;13.50;98.00;;;;;;4958962;29;20046;-79
2022/10/01 19:08:06;;;;;;;;;;;13.60;98.00;;;;;;4959047;29;20023;-78
2022/10/01 19:10:47;;;;;;;0.20;0.15;;;13.60;98.00;;;;;;4958414;28;19917;-77
2022/10/01 19:13:53;;;;;;;0.00;0.00;;;13.60;98.00;;;;;;4958505;29;20070;-77
2022/10/01 19:17:07;;;;;;;0.25;0.25;;;13.70;98.00;;;;;;4958264;28;20027;-77
2022/10/01 19:20:15;;;;;;;0.28;0.28;;;13.70;98.00;;;;;;4940734;29;20351;-78
2022/10/01 19:23:34;;;;;;;0.15;0.15;;;13.70;98.00;;;;;;4958106;29;20031;-78